Scf Explorer — WDJ4075 — position and weather

sailwx.info

Track history (hours):
 
Tides and Currents Weather Stations Pressure Air Temp Water Temp Dewpoint Dewpoint Depression Visibility Wind Speed Wind Dir Waves Ship Positions

Scf Explorer

Owner: SCF Waxler Marine LLC, St Rose, LA. More information available from US FCC via Universal Licensing System and Coast Guard Vessel Documentation Center.

Last reported at 2017-Dec-13 21:00 UTC. Time now 2017-Dec-17 08:24 UTC.
Position N 31°60' W 091°06'.

Length 48 m; draft 3 m.

Type: Towing. MMSI: 367774160.

Date/timePositionNaut miles runAvg speedWind from/ knotsBaromVisibWave heightAir tempDewpointWater temp
2017-Dec-13 21:00N 31°60' W 091°06'4 7.7
2017-Dec-13 20:29N 32°03' W 091°03'4 7.3
2017-Dec-13 20:00N 32°06' W 091°06'2 4.3
2017-Dec-13 19:30N 32°08' W 091°05'3 7.0
2017-Dec-13 19:00N 32°08' W 091°01'4 7.7
2017-Dec-13 18:30N 32°11' W 090°60'4 7.9
2017-Dec-13 18:00N 32°15' W 090°59'4 7.5
2017-Dec-13 17:30N 32°18' W 090°55'1 1.0
2017-Dec-13 17:00N 32°18' W 090°55'0 0.0
2017-Dec-13 16:30N 32°18' W 090°55'0 0.0
2017-Dec-13 16:00N 32°18' W 090°55'0 0.0
2017-Dec-13 15:30N 32°18' W 090°55'0 0.0
2017-Dec-13 15:00N 32°18' W 090°55'0 0.3
2017-Dec-13 14:31N 32°18' W 090°55'1 1.4
2017-Dec-13 14:00N 32°19' W 090°54'2 4.5
2017-Dec-13 13:30N 32°21' W 090°56'2 3.6
2017-Dec-13 13:01N 32°21' W 090°58'0 0.3
2017-Dec-13 12:30N 32°21' W 090°58'0 0.0
2017-Dec-13 12:00N 32°21' W 090°58'0 0.0
2017-Dec-13 11:31N 32°21' W 090°58'0 0.0
2017-Dec-13 11:01N 32°21' W 090°58'1 2.0
2017-Dec-13 10:31N 32°21' W 090°59'3 5.1
2017-Dec-13 10:00N 32°24' W 090°60'3 6.3
2017-Dec-13 09:30N 32°26' W 091°02'3 6.7
2017-Dec-13 09:00N 32°27' W 091°06'3 6.2
2017-Dec-13 08:30N 32°30' W 091°07'4 7.2
2017-Dec-13 08:00N 32°34' W 091°06'3 6.7
2017-Dec-13 07:31N 32°36' W 091°09'4 7.2
2017-Dec-13 07:00N 32°40' W 091°08'5 5.9
2017-Dec-13 06:06N 32°44' W 091°03'1 6.7
2017-Dec-13 06:00N 32°44' W 091°04'4 6.6
2017-Dec-13 05:19N 32°45' W 091°09'  
Track history (hours):
 
Tides and Currents Weather Stations Pressure Air Temp Water Temp Dewpoint Dewpoint Depression Visibility Wind Speed Wind Dir Waves Ship Positions

Scf Explorer

Owner: SCF Waxler Marine LLC, St Rose, LA. More information available from US FCC via Universal Licensing System and Coast Guard Vessel Documentation Center.

Last reported at 2017-Dec-13 21:00 UTC. Time now 2017-Dec-17 08:24 UTC.
Position N 31°60' W 091°06'.

Length 48 m; draft 3 m.

Type: Towing. MMSI: 367774160.

Date/timePositionNaut miles runAvg speedWind from/ knotsBaromVisibWave heightAir tempDewpointWater temp
2017-Dec-13 21:00N 31°60' W 091°06'4 7.7
2017-Dec-13 20:29N 32°03' W 091°03'4 7.3
2017-Dec-13 20:00N 32°06' W 091°06'2 4.3
2017-Dec-13 19:30N 32°08' W 091°05'3 7.0
2017-Dec-13 19:00N 32°08' W 091°01'4 7.7
2017-Dec-13 18:30N 32°11' W 090°60'4 7.9
2017-Dec-13 18:00N 32°15' W 090°59'4 7.5
2017-Dec-13 17:30N 32°18' W 090°55'1 1.0
2017-Dec-13 17:00N 32°18' W 090°55'0 0.0
2017-Dec-13 16:30N 32°18' W 090°55'0 0.0
2017-Dec-13 16:00N 32°18' W 090°55'0 0.0
2017-Dec-13 15:30N 32°18' W 090°55'0 0.0
2017-Dec-13 15:00N 32°18' W 090°55'0 0.3
2017-Dec-13 14:31N 32°18' W 090°55'1 1.4
2017-Dec-13 14:00N 32°19' W 090°54'2 4.5
2017-Dec-13 13:30N 32°21' W 090°56'2 3.6
2017-Dec-13 13:01N 32°21' W 090°58'0 0.3
2017-Dec-13 12:30N 32°21' W 090°58'0 0.0
2017-Dec-13 12:00N 32°21' W 090°58'0 0.0
2017-Dec-13 11:31N 32°21' W 090°58'0 0.0
2017-Dec-13 11:01N 32°21' W 090°58'1 2.0
2017-Dec-13 10:31N 32°21' W 090°59'3 5.1
2017-Dec-13 10:00N 32°24' W 090°60'3 6.3
2017-Dec-13 09:30N 32°26' W 091°02'3 6.7
2017-Dec-13 09:00N 32°27' W 091°06'3 6.2
2017-Dec-13 08:30N 32°30' W 091°07'4 7.2
2017-Dec-13 08:00N 32°34' W 091°06'3 6.7
2017-Dec-13 07:31N 32°36' W 091°09'4 7.2
2017-Dec-13 07:00N 32°40' W 091°08'5 5.9
2017-Dec-13 06:06N 32°44' W 091°03'1 6.7
2017-Dec-13 06:00N 32°44' W 091°04'4 6.6
2017-Dec-13 05:19N 32°45' W 091°09'  

Dump ship's entire track history